MDPC

Punta Cana International Airport

Punta Cana, Dominican Republic
TAF MDPC 190400Z 1906/2006 08010KT 9999 SCT017 PROB30 1908/1914 8000 -TSRA FEW016CB SCT016 SCT070
Issued Valid From Valid To
Oct-19 @ 04:00 UTC
(6 hours ago)
Oct-19 @ 06:00 UTC
(4 hours ago)
Oct-20 @ 06:00 UTC
(in 20 hours)
Oct-19 @ 06:00 to Oct-20 @ 06:00
TAF MDPC 190400Z 1906/2006 08010KT 9999 SCT017
Wind Visibility Clouds
80° at 10 knots 10,000+ meters
  • Scattered at 1,700' AGL
Probable  (Probability 30%) Oct-19 @ 08:00 to Oct-19 @ 14:00
PROB30 1908/1914 8000 -TSRA FEW016CB SCT016 SCT070
Visibility Clouds Conditions
7,998 meters
  • Few at 1,600' AGL
  • Scattered at 1,600' AGL
  • Scattered at 7,000' AGL
  • Light Thunderstorm
  • Light Rain
TAF MDPC 190400Z 1906/2006 08010KT 9999 SCT017 PROB30 1908/1914 8000 -TSRA FEW016CB SCT016 SCT070
Issued Oct-19 @ 04:00 UTC
(6 hours ago)
Valid From Oct-19 @ 06:00 UTC
(4 hours ago)
Valid To Oct-20 @ 06:00 UTC
(in 20 hours)
Oct-19 @ 06:00 - Oct-20 @ 06:00
Wind Visibility
80° at 10 knots 10,000+ meters
Clouds
  • Scattered at 1,700' AGL
Probability 30% Probable Oct-19 @ 08:00 - Oct-19 @ 14:00
Clouds
  • Few at 1,600' AGL
  • Scattered at 1,600' AGL
  • Scattered at 7,000' AGL
Conditions
  • Light Thunderstorm
  • Light Rain